Time;durP1;ratioP1;P1;durP2;ratioP2;P2;SDS_P1;SDS_P2;PMS_P1;PMS_P2;Temp;Humidity;BMP_temperature;BMP_pressure;BME280_temperature;BME280_humidity;BME280_pressure;Samples;Min_cycle;Max_cycle;Signal;HPM_P1;HPM_P2
2022/01/03 00:01:14;;;;;;;15.00;14.53;;;20.20;96.60;;;;;;5031376;28;20469;-47
2022/01/03 00:03:41;;;;;;;14.40;14.00;;;20.20;96.60;;;;;;5031487;28;20449;-47
2022/01/03 00:06:07;;;;;;;15.23;14.73;;;20.10;96.50;;;;;;5031633;28;20468;-46
2022/01/03 00:08:34;;;;;;;14.40;13.90;;;20.10;96.40;;;;;;5031613;28;20456;-46
2022/01/03 00:11:01;;;;;;;14.87;14.37;;;20.10;96.70;;;;;;5031332;28;20480;-46
2022/01/03 00:13:28;;;;;;;14.73;14.23;;;20.10;96.60;;;;;;5031055;28;20441;-46
2022/01/03 00:15:55;;;;;;;14.50;14.00;;;20.00;96.50;;;;;;5031597;28;20481;-48
2022/01/03 00:18:24;;;;;;;14.70;14.20;;;20.00;96.40;;;;;;5031515;28;20510;-46
2022/01/03 00:20:58;;;;;;;15.17;14.67;;;20.00;96.70;;;;;;5031624;28;20465;-46
2022/01/03 00:23:27;;;;;;;14.97;14.50;;;20.00;96.40;;;;;;5031539;28;20573;-47
2022/01/03 00:25:59;;;;;;;15.10;14.60;;;20.00;96.30;;;;;;5031405;28;20437;-46
2022/01/03 00:28:34;;;;;;;14.90;14.50;;;19.90;96.10;;;;;;5031603;28;20930;-47
2022/01/03 00:31:01;;;;;;;15.53;14.83;;;20.00;96.60;;;;;;5031662;28;20525;-46
2022/01/03 00:33:30;;;;;;;15.17;14.57;;;19.90;96.00;;;;;;5031425;28;20445;-46
2022/01/03 00:35:59;;;;;;;15.03;14.43;;;19.90;96.10;;;;;;5031371;28;21041;-47
2022/01/03 00:38:27;;;;;;;15.20;14.60;;;19.90;96.20;;;;;;5031565;28;20859;-47
2022/01/03 00:40:54;;;;;;;14.80;14.30;;;19.90;96.00;;;;;;5031353;28;20508;-45
2022/01/03 00:43:21;;;;;;;14.80;14.40;;;19.90;96.10;;;;;;5031440;28;20452;-47
2022/01/03 00:45:52;;;;;;;14.60;14.20;;;19.80;96.20;;;;;;5031196;28;20858;-47
2022/01/03 00:48:19;;;;;;;15.63;14.90;;;19.80;96.20;;;;;;5031582;28;20938;-47
2022/01/03 00:50:47;;;;;;;14.73;14.23;;;19.80;96.00;;;;;;5031254;28;20472;-49
2022/01/03 00:53:15;;;;;;;15.33;14.60;;;19.80;96.10;;;;;;5031383;28;20469;-46
2022/01/03 00:56:00;;;;;;;14.73;14.13;;;19.80;96.30;;;;;;5031380;28;20585;-46
2022/01/03 00:58:34;;;;;;;15.03;14.47;;;19.80;96.30;;;;;;5015459;28;20442;-46
2022/01/03 01:01:01;;;;;;;14.93;14.40;;;19.70;96.30;;;;;;5015326;28;20469;-45
2022/01/03 01:03:34;;;;;;;15.27;14.70;;;19.80;96.40;;;;;;5015101;28;20458;-45
2022/01/03 01:06:04;;;;;;;15.33;14.70;;;19.70;96.30;;;;;;5015434;28;20445;-46
2022/01/03 01:08:34;;;;;;;14.80;14.30;;;19.70;96.30;;;;;;5019097;28;20445;-45
2022/01/03 01:11:03;;;;;;;14.70;14.20;;;19.70;96.30;;;;;;5034718;28;20476;-48
2022/01/03 01:13:30;;;;;;;15.17;14.50;;;19.70;96.50;;;;;;5034744;28;20544;-48
2022/01/03 01:15:56;;;;;;;14.90;14.30;;;19.70;96.20;;;;;;5034693;28;20488;-46
2022/01/03 01:18:24;;;;;;;15.17;14.67;;;19.60;96.10;;;;;;5034837;28;20861;-47
2022/01/03 01:20:51;;;;;;;15.70;15.00;;;19.60;96.50;;;;;;5034667;28;20460;-46
2022/01/03 01:23:19;;;;;;;15.17;14.63;;;19.60;96.60;;;;;;5034532;28;20472;-48
2022/01/03 01:28:31;;;;;;;15.20;14.80;;;19.60;96.60;;;;;;5034686;28;20432;-49
2022/01/03 01:31:01;;;;;;;14.83;14.20;;;19.60;96.60;;;;;;5034617;28;20472;-46
2022/01/03 01:33:32;;;;;;;14.90;14.40;;;19.60;96.80;;;;;;5034353;28;20449;-46
2022/01/03 01:36:03;;;;;;;14.90;14.40;;;19.60;96.40;;;;;;5034370;28;20481;-47
2022/01/03 01:38:35;;;;;;;15.33;14.57;;;19.60;97.00;;;;;;5034500;28;20450;-45
2022/01/03 01:41:04;;;;;;;15.63;15.07;;;19.60;96.80;;;;;;5034549;28;20480;-46
2022/01/03 01:43:36;;;;;;;15.20;14.60;;;19.50;96.80;;;;;;5034164;28;20456;-45
2022/01/03 01:46:08;;;;;;;14.47;14.07;;;19.60;96.90;;;;;;5034149;28;20530;-47
2022/01/03 01:48:36;;;;;;;15.00;14.20;;;19.60;97.40;;;;;;5034265;28;20449;-49
2022/01/03 01:51:04;;;;;;;14.63;14.20;;;19.70;97.30;;;;;;5034041;28;20473;-45
2022/01/03 01:53:34;;;;;;;14.60;14.10;;;19.50;97.20;;;;;;5034077;28;20456;-45
2022/01/03 01:56:05;;;;;;;14.87;14.37;;;19.50;97.70;;;;;;5033909;28;20481;-46
2022/01/03 01:58:37;;;;;;;15.03;14.53;;;19.50;97.60;;;;;;5034023;28;20468;-46
2022/01/03 02:01:06;;;;;;;14.77;14.27;;;19.50;97.40;;;;;;5034064;28;20801;-48
2022/01/03 02:03:39;;;;;;;15.30;14.70;;;19.50;97.50;;;;;;5033965;28;20441;-45
2022/01/03 02:06:30;;;;;;;15.33;14.73;;;19.50;97.90;;;;;;5033974;28;20445;-46
2022/01/03 02:09:06;;;;;;;15.17;14.57;;;19.40;97.40;;;;;;5032456;28;20449;-47
2022/01/03 02:11:52;;;;;;;14.80;14.30;;;19.40;97.90;;;;;;5033994;28;20887;-46
2022/01/03 02:14:19;;;;;;;15.33;14.80;;;19.50;97.80;;;;;;5033624;28;20441;-46
2022/01/03 02:16:46;;;;;;;14.97;14.47;;;19.40;97.70;;;;;;5033477;28;20480;-49
2022/01/03 02:19:13;;;;;;;15.00;14.50;;;19.40;97.60;;;;;;5033268;28;20453;-46
2022/01/03 02:21:41;;;;;;;15.20;14.70;;;19.40;97.70;;;;;;5032925;28;20476;-48
2022/01/03 02:24:09;;;;;;;14.90;14.40;;;19.40;97.60;;;;;;5033395;28;20441;-47
2022/01/03 02:26:36;;;;;;;14.90;14.40;;;19.40;97.70;;;;;;5033650;28;20448;-46
2022/01/03 02:29:03;;;;;;;14.73;14.33;;;19.40;97.70;;;;;;5033032;28;20460;-47
2022/01/03 02:31:31;;;;;;;15.10;14.50;;;19.40;98.00;;;;;;5033068;28;20881;-48
2022/01/03 02:34:00;;;;;;;14.90;14.40;;;19.40;98.40;;;;;;5033207;28;20828;-46
2022/01/03 02:36:28;;;;;;;15.23;14.63;;;19.40;98.30;;;;;;5033088;28;20485;-46
2022/01/03 02:38:56;;;;;;;14.90;14.40;;;19.30;98.30;;;;;;5033235;28;20484;-47
2022/01/03 02:41:23;;;;;;;14.60;14.20;;;19.40;98.90;;;;;;5032616;28;20480;-47
2022/01/03 02:43:50;;;;;;;14.63;14.20;;;19.40;99.00;;;;;;5032735;28;20548;-46
2022/01/03 02:46:17;;;;;;;14.53;13.97;;;19.30;99.20;;;;;;5032773;28;20468;-47
2022/01/03 02:48:44;;;;;;;15.50;14.80;;;19.30;99.50;;;;;;5032943;28;20457;-46
2022/01/03 02:51:11;;;;;;;14.83;14.17;;;19.40;99.70;;;;;;5032924;28;20469;-46
2022/01/03 02:53:38;;;;;;;14.70;14.30;;;19.30;99.00;;;;;;5032408;28;20448;-46
2022/01/03 02:56:07;;;;;;;14.97;14.47;;;19.30;99.60;;;;;;5032683;28;21025;-47
2022/01/03 02:58:34;;;;;;;15.10;14.60;;;19.40;99.40;;;;;;5033072;28;20449;-46
2022/01/03 03:01:01;;;;;;;14.27;13.80;;;19.30;99.00;;;;;;5032630;28;20468;-46
2022/01/03 03:03:27;;;;;;;14.70;14.20;;;19.30;99.40;;;;;;5032441;28;20457;-47
2022/01/03 03:05:54;;;;;;;14.90;14.30;;;19.30;99.40;;;;;;5032415;28;20499;-46
2022/01/03 03:08:21;;;;;;;14.43;14.03;;;19.30;99.50;;;;;;5032568;28;20445;-46
2022/01/03 03:10:48;;;;;;;14.60;14.10;;;19.30;99.80;;;;;;5032316;28;20476;-47
2022/01/03 03:13:16;;;;;;;15.30;14.70;;;19.20;99.90;;;;;;5032332;28;20520;-46
2022/01/03 03:15:42;;;;;;;15.07;14.30;;;19.20;99.80;;;;;;5032399;28;20488;-46
2022/01/03 03:18:09;;;;;;;14.73;14.23;;;19.30;99.50;;;;;;5032081;28;20453;-46
2022/01/03 03:20:37;;;;;;;14.67;14.07;;;19.20;99.80;;;;;;5031942;28;20469;-46
2022/01/03 03:23:04;;;;;;;14.97;14.30;;;19.20;99.70;;;;;;5031815;28;20488;-46
2022/01/03 03:25:32;;;;;;;14.77;14.30;;;19.20;99.60;;;;;;5032276;28;20448;-46
2022/01/03 03:28:01;;;;;;;15.17;14.57;;;19.20;99.80;;;;;;5032289;28;20476;-46
2022/01/03 03:30:32;;;;;;;15.77;14.97;;;19.20;99.60;;;;;;5031848;28;20461;-49
2022/01/03 03:33:04;;;;;;;15.63;15.03;;;19.10;99.90;;;;;;5032017;28;20449;-46
2022/01/03 03:35:31;;;;;;;14.07;13.67;;;19.20;99.40;;;;;;5032103;28;20892;-46
2022/01/03 03:37:58;;;;;;;14.70;14.20;;;19.20;99.90;;;;;;5032079;28;20479;-46
2022/01/03 03:40:25;;;;;;;14.73;14.33;;;19.10;99.70;;;;;;5031855;28;20465;-46
2022/01/03 03:42:52;;;;;;;14.73;14.20;;;19.20;99.90;;;;;;5031591;28;20453;-46
2022/01/03 03:45:19;;;;;;;15.03;14.47;;;19.10;99.90;;;;;;5031772;28;20544;-46
2022/01/03 03:47:48;;;;;;;15.07;14.57;;;19.10;99.80;;;;;;5031948;28;20488;-48
2022/01/03 03:50:14;;;;;;;15.00;14.50;;;19.10;99.90;;;;;;5031728;28;20461;-47
2022/01/03 03:52:41;;;;;;;14.90;14.40;;;19.20;99.90;;;;;;5031457;28;20453;-46
2022/01/03 03:55:09;;;;;;;14.70;14.20;;;19.10;99.90;;;;;;5031770;28;20456;-46
2022/01/03 03:57:35;;;;;;;14.97;14.47;;;19.00;99.90;;;;;;5031794;28;20480;-46
2022/01/03 04:00:03;;;;;;;15.07;14.57;;;19.00;99.90;;;;;;5031758;28;20473;-46
2022/01/03 04:02:30;;;;;;;15.10;14.60;;;19.00;99.90;;;;;;5031441;28;20449;-46
2022/01/03 04:04:59;;;;;;;15.53;15.00;;;19.00;99.90;;;;;;5031322;28;20449;-46
2022/01/03 04:07:25;;;;;;;15.73;15.23;;;19.00;99.90;;;;;;5031639;28;20451;-46
2022/01/03 04:09:52;;;;;;;15.40;14.80;;;19.10;99.90;;;;;;5031410;28;20453;-46
2022/01/03 04:12:19;;;;;;;14.60;14.10;;;19.00;99.90;;;;;;5031428;28;20449;-46
2022/01/03 04:14:45;;;;;;;14.90;14.37;;;19.00;99.90;;;;;;5031562;28;20456;-46
2022/01/03 04:17:12;;;;;;;15.90;15.30;;;19.00;99.90;;;;;;5031309;28;20473;-46
2022/01/03 04:19:39;;;;;;;15.77;15.10;;;19.10;99.90;;;;;;5031445;28;20842;-46
2022/01/03 04:22:07;;;;;;;14.67;14.17;;;19.00;99.90;;;;;;5031243;28;20479;-46
2022/01/03 04:24:34;;;;;;;14.83;14.27;;;19.10;99.90;;;;;;5031446;28;20503;-46
2022/01/03 04:27:01;;;;;;;14.73;14.23;;;19.10;99.90;;;;;;5031644;28;20452;-47
2022/01/03 04:29:28;;;;;;;14.90;14.40;;;19.10;99.90;;;;;;5031072;28;20496;-49
2022/01/03 04:31:54;;;;;;;15.43;14.83;;;19.10;99.90;;;;;;5033375;28;20468;-47
2022/01/03 04:34:21;;;;;;;14.67;14.17;;;19.10;99.90;;;;;;5035296;28;20449;-46
2022/01/03 04:36:48;;;;;;;15.03;14.40;;;19.10;99.90;;;;;;5035304;28;20575;-49
2022/01/03 04:39:16;;;;;;;14.30;13.80;;;19.20;99.90;;;;;;5035311;28;20449;-49
2022/01/03 04:41:43;;;;;;;14.30;13.90;;;19.20;99.90;;;;;;5034876;28;20484;-47
2022/01/03 04:44:10;;;;;;;14.33;13.93;;;19.30;99.90;;;;;;5035276;28;20456;-48
2022/01/03 04:46:37;;;;;;;14.60;14.10;;;19.30;99.90;;;;;;5035255;28;20437;-46
2022/01/03 04:49:06;;;;;;;14.90;14.20;;;19.30;99.90;;;;;;5034885;28;20452;-50
2022/01/03 04:51:32;;;;;;;13.53;13.13;;;19.30;99.90;;;;;;5034896;28;20461;-49
2022/01/03 04:53:59;;;;;;;14.60;14.00;;;19.10;99.90;;;;;;5035090;28;20448;-47
2022/01/03 04:56:27;;;;;;;14.67;13.90;;;19.30;99.90;;;;;;5034915;28;20487;-47
2022/01/03 04:58:55;;;;;;;15.07;14.47;;;19.30;99.90;;;;;;5034953;28;20896;-50
2022/01/03 05:01:21;;;;;;;14.20;13.60;;;19.20;99.90;;;;;;5034630;28;20899;-49
2022/01/03 05:03:48;;;;;;;14.63;14.13;;;19.20;99.90;;;;;;5034674;28;20442;-47
2022/01/03 05:06:16;;;;;;;14.73;14.23;;;19.10;99.90;;;;;;5034815;28;20496;-48
2022/01/03 05:08:43;;;;;;;14.53;14.03;;;19.10;99.90;;;;;;5034929;28;20908;-48
2022/01/03 05:11:10;;;;;;;14.13;13.70;;;19.20;99.90;;;;;;5034267;28;20485;-46
2022/01/03 05:13:38;;;;;;;15.00;14.60;;;19.10;99.90;;;;;;5034563;28;20807;-46
2022/01/03 05:16:05;;;;;;;14.23;13.63;;;19.10;99.90;;;;;;5034553;28;20484;-48
2022/01/03 05:18:32;;;;;;;15.10;14.60;;;19.10;99.90;;;;;;5034542;28;20449;-46
2022/01/03 05:20:59;;;;;;;14.80;14.30;;;19.10;99.90;;;;;;5034640;28;20461;-48
2022/01/03 05:23:25;;;;;;;15.40;14.80;;;19.10;99.90;;;;;;5034125;28;20930;-46
2022/01/03 05:25:52;;;;;;;14.60;14.10;;;19.20;99.90;;;;;;5034311;28;20449;-47
2022/01/03 05:28:19;;;;;;;14.53;14.13;;;19.20;99.90;;;;;;5034338;28;20764;-46
2022/01/03 05:30:47;;;;;;;14.20;13.80;;;19.20;99.90;;;;;;5034322;28;20468;-47
2022/01/03 05:33:14;;;;;;;14.40;13.90;;;19.20;99.90;;;;;;5034070;28;20444;-47
2022/01/03 05:35:40;;;;;;;14.47;13.97;;;19.20;99.90;;;;;;5034088;28;20826;-47
2022/01/03 05:38:07;;;;;;;15.27;14.50;;;19.20;99.90;;;;;;5034300;28;20850;-48
2022/01/03 05:40:34;;;;;;;14.70;14.20;;;19.20;99.90;;;;;;5034068;28;20465;-46
2022/01/03 05:43:01;;;;;;;14.40;13.90;;;19.20;99.90;;;;;;5033861;28;20453;-48
2022/01/03 05:45:27;;;;;;;15.00;14.50;;;19.20;99.90;;;;;;5034068;28;20453;-47
2022/01/03 05:47:55;;;;;;;14.87;14.27;;;19.20;99.90;;;;;;5033823;28;20444;-47
2022/01/03 05:50:23;;;;;;;14.80;14.30;;;19.00;99.90;;;;;;5033754;28;20469;-49
2022/01/03 05:52:49;;;;;;;15.07;14.57;;;18.90;99.90;;;;;;5033769;28;20449;-46
2022/01/03 05:55:17;;;;;;;14.50;14.00;;;18.90;99.90;;;;;;5034012;28;20441;-47
2022/01/03 05:57:43;;;;;;;13.90;13.50;;;19.10;99.90;;;;;;5033927;28;20531;-47
2022/01/03 06:00:14;;;;;;;15.10;14.40;;;19.30;99.90;;;;;;5033462;28;21012;-47
2022/01/03 06:02:42;;;;;;;14.30;13.90;;;19.40;99.90;;;;;;5033657;28;20540;-47
2022/01/03 06:05:18;;;;;;;14.97;14.47;;;19.50;99.90;;;;;;5033769;28;20442;-47
2022/01/03 06:07:45;;;;;;;15.13;14.43;;;19.60;99.90;;;;;;5033736;28;20441;-46
2022/01/03 06:10:16;;;;;;;14.80;14.30;;;19.60;99.90;;;;;;5033510;28;20475;-47
2022/01/03 06:12:45;;;;;;;14.90;14.40;;;19.70;99.60;;;;;;5033325;28;20449;-48
2022/01/03 06:15:14;;;;;;;14.57;14.17;;;19.80;98.70;;;;;;5033542;28;20445;-48
2022/01/03 06:17:41;;;;;;;14.73;14.13;;;19.80;98.00;;;;;;5033387;28;20531;-47
2022/01/03 06:20:11;;;;;;;14.60;14.10;;;19.90;97.50;;;;;;5033256;28;20469;-47
2022/01/03 06:22:39;;;;;;;14.83;14.40;;;20.00;97.20;;;;;;5033382;28;20445;-47
2022/01/03 06:25:06;;;;;;;16.17;15.37;;;20.00;97.10;;;;;;5033202;28;20731;-47
2022/01/03 06:27:33;;;;;;;15.83;15.13;;;20.10;96.80;;;;;;5033337;28;20966;-50
2022/01/03 06:29:59;;;;;;;14.90;14.40;;;20.10;96.40;;;;;;5033218;28;20472;-47
2022/01/03 06:32:26;;;;;;;15.07;14.57;;;20.10;95.90;;;;;;5033118;28;20471;-48
2022/01/03 06:34:53;;;;;;;15.33;14.83;;;20.20;95.60;;;;;;5033178;28;20452;-48
2022/01/03 06:37:21;;;;;;;14.90;14.33;;;20.30;95.40;;;;;;5032743;28;20477;-47
2022/01/03 06:39:48;;;;;;;14.50;14.10;;;20.30;94.80;;;;;;5032929;28;20460;-48
2022/01/03 06:42:14;;;;;;;14.73;14.23;;;20.30;94.70;;;;;;5032912;28;20449;-47
2022/01/03 06:44:43;;;;;;;14.57;14.07;;;20.40;94.40;;;;;;5033016;28;20445;-49
2022/01/03 06:47:10;;;;;;;15.60;15.00;;;20.50;94.10;;;;;;5032962;28;20447;-47
2022/01/03 06:49:37;;;;;;;15.10;14.50;;;20.40;93.50;;;;;;5032432;28;20453;-46
2022/01/03 06:52:04;;;;;;;15.37;14.77;;;20.50;93.40;;;;;;5032645;28;20469;-49
2022/01/03 06:54:33;;;;;;;16.10;15.47;;;20.50;93.10;;;;;;5032270;28;20520;-47
2022/01/03 06:57:00;;;;;;;15.80;15.20;;;20.60;93.20;;;;;;5032765;28;20588;-48
2022/01/03 06:59:27;;;;;;;15.00;14.47;;;20.50;92.70;;;;;;5032524;28;20445;-48
2022/01/03 07:01:53;;;;;;;14.50;14.10;;;20.60;92.50;;;;;;5032280;28;20472;-46
2022/01/03 07:04:20;;;;;;;15.93;15.33;;;20.60;92.50;;;;;;5032718;28;20993;-49
2022/01/03 07:06:47;;;;;;;15.23;14.60;;;20.60;92.30;;;;;;5032683;28;20468;-47
2022/01/03 07:09:13;;;;;;;15.23;14.73;;;20.60;91.90;;;;;;5032355;28;20464;-46
2022/01/03 07:11:41;;;;;;;15.07;14.50;;;20.50;92.00;;;;;;5032154;28;20990;-47
2022/01/03 07:19:39;;;;;;;14.80;14.30;;;20.50;92.00;;;;;;4975747;28;20498;-46
2022/01/03 07:22:08;;;;;;;15.53;14.63;;;20.50;91.80;;;;;;5028099;28;20445;-47
2022/01/03 07:24:37;;;;;;;14.93;14.43;;;20.40;91.80;;;;;;5019957;28;21030;-47
2022/01/03 07:27:06;;;;;;;14.53;14.03;;;20.40;92.50;;;;;;5020343;28;20452;-46
2022/01/03 07:29:33;;;;;;;14.87;14.17;;;20.40;92.70;;;;;;5020292;28;20946;-46
2022/01/03 07:32:00;;;;;;;14.80;14.10;;;20.30;92.70;;;;;;5020099;28;20464;-48
2022/01/03 07:34:28;;;;;;;15.30;14.60;;;20.30;92.90;;;;;;5020100;28;20502;-49
2022/01/03 07:36:55;;;;;;;14.23;13.83;;;20.20;93.20;;;;;;5019946;28;20653;-50
2022/01/03 07:39:22;;;;;;;14.20;13.70;;;20.20;92.70;;;;;;5020307;28;20445;-49
2022/01/03 07:41:48;;;;;;;16.70;15.80;;;20.20;92.60;;;;;;5019797;28;20920;-52
2022/01/03 07:44:17;;;;;;;17.07;15.90;;;20.00;82.10;;;;;;5020175;28;20456;-55
2022/01/03 07:46:43;;;;;;;17.00;16.07;;;19.30;78.00;;;;;;5019992;28;20487;-52
2022/01/03 07:49:10;;;;;;;16.80;15.90;;;18.90;82.50;;;;;;5019938;28;20453;-51
2022/01/03 07:51:37;;;;;;;15.03;14.30;;;18.60;82.40;;;;;;5019698;28;20967;-51
2022/01/03 07:54:04;;;;;;;16.57;15.60;;;18.40;82.70;;;;;;5020110;28;20449;-52
2022/01/03 07:56:33;;;;;;;16.30;15.40;;;18.30;83.90;;;;;;5019654;28;20449;-52
2022/01/03 07:58:59;;;;;;;16.83;16.00;;;18.10;84.30;;;;;;5019831;28;20452;-53
2022/01/03 08:01:27;;;;;;;17.43;16.43;;;18.10;88.80;;;;;;5019785;28;20477;-55
2022/01/03 08:03:54;;;;;;;17.23;16.43;;;18.00;88.40;;;;;;5019841;28;20449;-52
2022/01/03 08:06:21;;;;;;;15.90;15.10;;;17.90;89.50;;;;;;5018714;28;20460;-51
2022/01/03 08:08:47;;;;;;;16.43;15.37;;;17.90;88.50;;;;;;5019414;28;20205;-48
2022/01/03 08:11:14;;;;;;;15.63;14.97;;;17.80;93.70;;;;;;5020293;28;20477;-58
2022/01/03 08:13:41;;;;;;;14.90;14.40;;;17.90;96.00;;;;;;5019380;28;20457;-57
2022/01/03 08:16:07;;;;;;;14.67;14.07;;;18.10;97.40;;;;;;5019646;28;20480;-53
2022/01/03 08:18:35;;;;;;;15.20;14.50;;;18.30;98.50;;;;;;5019583;28;20485;-50
2022/01/03 08:21:02;;;;;;;15.00;14.40;;;18.40;98.70;;;;;;5019508;28;20696;-55
2022/01/03 08:23:30;;;;;;;15.50;14.60;;;18.50;98.00;;;;;;5019487;28;20460;-50
2022/01/03 08:25:57;;;;;;;14.57;14.07;;;18.60;98.90;;;;;;5019273;28;20453;-54
2022/01/03 08:28:24;;;;;;;15.20;14.60;;;18.70;98.50;;;;;;5019532;28;20655;-54
2022/01/03 08:30:50;;;;;;;15.80;15.13;;;18.70;98.60;;;;;;5019172;28;20820;-57
2022/01/03 08:33:17;;;;;;;15.30;14.80;;;18.80;98.80;;;;;;5019101;28;20451;-55
2022/01/03 08:35:45;;;;;;;15.50;14.90;;;18.80;98.60;;;;;;5019334;28;20460;-52
2022/01/03 08:38:12;;;;;;;14.90;14.40;;;18.90;98.50;;;;;;5019315;28;20488;-53
2022/01/03 08:40:39;;;;;;;15.23;14.53;;;18.90;98.50;;;;;;5018824;28;21337;-56
2022/01/03 08:43:06;;;;;;;15.20;14.60;;;19.00;98.30;;;;;;5018659;28;20515;-56
2022/01/03 08:45:32;;;;;;;15.00;14.50;;;19.10;98.60;;;;;;5018715;28;20453;-55
2022/01/03 08:47:59;;;;;;;15.27;14.67;;;19.00;98.50;;;;;;5019546;28;20445;-51
2022/01/03 08:50:26;;;;;;;15.13;14.53;;;19.10;98.10;;;;;;5018612;28;20469;-50
2022/01/03 08:52:54;;;;;;;14.67;14.17;;;19.20;98.10;;;;;;5019232;28;20962;-54
2022/01/03 08:55:21;;;;;;;15.33;14.60;;;19.10;98.30;;;;;;5019135;28;20456;-51
2022/01/03 08:57:51;;;;;;;15.17;14.50;;;19.20;98.20;;;;;;5018909;28;20861;-53
2022/01/03 09:00:18;;;;;;;15.27;14.70;;;19.20;98.40;;;;;;5019282;28;20833;-54
2022/01/03 09:02:45;;;;;;;15.27;14.53;;;19.20;98.10;;;;;;5019128;28;20463;-57
2022/01/03 09:05:12;;;;;;;13.90;13.40;;;19.20;98.10;;;;;;5018737;28;20906;-49
2022/01/03 09:07:38;;;;;;;14.40;13.80;;;19.20;98.20;;;;;;5019409;28;20460;-51
2022/01/03 09:10:08;;;;;;;13.70;13.00;;;19.30;98.10;;;;;;5018393;28;20444;-53
2022/01/03 09:12:34;;;;;;;16.20;15.40;;;19.40;97.50;;;;;;5019443;28;20877;-59
2022/01/03 09:15:02;;;;;;;15.50;14.90;;;19.40;97.30;;;;;;5019198;28;20463;-57
2022/01/03 09:17:28;;;;;;;16.50;15.90;;;19.40;96.50;;;;;;5020655;28;20484;-58
2022/01/03 09:19:55;;;;;;;15.57;14.80;;;19.40;97.00;;;;;;5022585;28;20638;-60
2022/01/03 09:22:27;;;;;;;13.50;13.10;;;19.40;96.90;;;;;;5022554;28;20873;-60
2022/01/03 09:28:49;;;;;;;15.40;14.40;;;19.40;96.50;;;;;;5022170;28;20514;-55
2022/01/03 09:30:28;;;;;;;15.83;15.03;;;19.50;98.50;;;;;;5022242;28;20503;-60
2022/01/03 09:32:54;;;;;;;16.67;15.47;;;19.50;99.90;;;;;;5022078;28;20776;-58
2022/01/03 09:35:22;;;;;;;17.87;16.30;;;19.60;99.90;;;;;;5022584;28;20445;-59
2022/01/03 09:37:49;;;;;;;17.53;16.40;;;19.70;99.90;;;;;;5022381;28;20928;-60
2022/01/03 09:40:17;;;;;;;18.37;16.87;;;19.80;99.90;;;;;;5022224;28;20473;-60
2022/01/03 09:42:50;;;;;;;18.83;17.23;;;19.80;99.90;;;;;;5022041;28;20453;-60
2022/01/03 09:45:18;;;;;;;17.70;16.00;;;19.90;99.90;;;;;;5022443;28;21195;-61
2022/01/03 09:47:45;;;;;;;19.00;17.30;;;19.90;99.90;;;;;;5022327;28;21259;-61
2022/01/03 09:50:17;;;;;;;17.80;16.50;;;19.80;99.90;;;;;;5022223;28;20471;-60
2022/01/03 09:52:47;;;;;;;19.23;17.83;;;19.80;99.90;;;;;;5022122;28;20467;-61
2022/01/03 09:55:15;;;;;;;17.93;16.83;;;19.80;99.90;;;;;;5022474;28;20448;-60
2022/01/03 09:57:44;;;;;;;20.77;19.10;;;19.80;99.90;;;;;;5022174;28;21100;-60
2022/01/03 10:00:14;;;;;;;18.40;16.73;;;19.80;99.90;;;;;;5022138;28;20472;-61
2022/01/03 10:02:41;;;;;;;17.50;16.43;;;19.80;99.90;;;;;;5021642;28;20453;-57
2022/01/03 10:05:09;;;;;;;17.30;16.00;;;19.70;99.90;;;;;;5021689;28;21286;-58
2022/01/03 10:07:36;;;;;;;16.63;15.63;;;19.70;99.90;;;;;;5021794;28;20448;-61
2022/01/03 10:10:04;;;;;;;17.10;16.20;;;19.80;99.90;;;;;;5021744;28;20488;-60
2022/01/03 10:12:30;;;;;;;17.17;15.90;;;19.80;99.90;;;;;;5021623;28;20583;-61
2022/01/03 10:14:58;;;;;;;16.67;15.83;;;19.80;99.90;;;;;;5022011;28;20452;-59
2022/01/03 10:17:26;;;;;;;15.93;14.90;;;19.70;99.90;;;;;;5021597;28;20499;-60
2022/01/03 10:19:55;;;;;;;16.03;15.33;;;19.70;99.90;;;;;;5021368;28;20962;-58
2022/01/03 10:22:24;;;;;;;17.90;16.73;;;19.70;99.90;;;;;;5021498;28;21030;-62
2022/01/03 10:24:51;;;;;;;17.00;16.10;;;19.70;99.90;;;;;;5021126;28;20958;-59
2022/01/03 10:27:18;;;;;;;17.47;16.30;;;19.70;99.90;;;;;;5021580;28;20473;-50
2022/01/03 10:29:55;;;;;;;19.53;17.80;;;19.70;99.90;;;;;;5020483;28;20846;-60
2022/01/03 10:32:28;;;;;;;16.20;15.43;;;19.70;99.90;;;;;;5020937;28;20520;-60
2022/01/03 10:34:56;;;;;;;15.90;15.20;;;19.80;99.90;;;;;;5021513;28;20681;-59
2022/01/03 10:37:35;;;;;;;16.30;15.30;;;19.70;99.90;;;;;;5021438;28;20564;-60
2022/01/03 10:40:17;;;;;;;15.02;14.02;;;19.70;99.90;;;;;;5020108;28;20915;-59
2022/01/03 10:42:43;;;;;;;17.27;16.27;;;19.80;99.90;;;;;;5020324;28;20704;-59
2022/01/03 10:45:10;;;;;;;15.70;15.00;;;19.70;99.90;;;;;;5021278;28;20449;-61
2022/01/03 10:47:41;;;;;;;15.38;14.70;;;19.80;99.90;;;;;;5020436;28;20469;-60
2022/01/03 10:50:16;;;;;;;15.90;15.03;;;19.80;99.90;;;;;;5021556;28;20711;-54
2022/01/03 10:52:44;;;;;;;16.27;15.47;;;19.80;99.90;;;;;;5020558;28;21144;-59
2022/01/03 10:55:15;;;;;;;14.02;13.23;;;19.70;99.90;;;;;;5019953;28;20453;-58
2022/01/03 10:57:52;;;;;;;15.47;14.77;;;19.80;99.90;;;;;;5028787;28;20191;-60
2022/01/03 11:00:21;;;;;;;15.50;14.80;;;19.90;99.90;;;;;;5032516;28;20483;-57
2022/01/03 11:03:28;;;;;;;16.60;15.87;;;20.00;99.90;;;;;;5032412;28;20452;-52
2022/01/03 11:06:01;;;;;;;15.67;14.87;;;19.90;99.90;;;;;;4990334;28;20460;-56
2022/01/03 11:11:15;;;;;;;15.60;15.00;;;19.90;99.90;;;;;;5032389;28;20835;-55
2022/01/03 11:13:43;;;;;;;16.27;15.67;;;19.90;99.90;;;;;;5032256;28;20448;-55
2022/01/03 11:16:11;;;;;;;15.53;14.53;;;19.90;99.90;;;;;;5032399;28;20437;-55
2022/01/03 11:18:44;;;;;;;15.70;15.00;;;19.80;99.90;;;;;;5032223;28;20484;-55
2022/01/03 11:21:13;;;;;;;15.27;14.67;;;19.80;99.90;;;;;;5032186;28;20465;-58
2022/01/03 11:23:41;;;;;;;16.33;15.40;;;19.80;99.90;;;;;;5032209;28;20452;-52
2022/01/03 11:26:09;;;;;;;14.67;13.87;;;19.80;99.90;;;;;;5032262;28;20441;-53
2022/01/03 11:28:37;;;;;;;14.93;14.00;;;19.80;99.90;;;;;;5032350;28;20437;-53
2022/01/03 11:31:04;;;;;;;14.43;13.77;;;19.80;99.90;;;;;;5032234;28;20465;-53
2022/01/03 11:33:31;;;;;;;14.80;14.30;;;19.70;99.90;;;;;;5031954;28;20457;-59
2022/01/03 11:36:01;;;;;;;14.50;14.00;;;19.70;99.90;;;;;;5032194;28;20531;-53
2022/01/03 11:38:30;;;;;;;14.80;14.20;;;19.70;99.90;;;;;;5032137;28;20563;-56
2022/01/03 11:41:00;;;;;;;15.37;14.50;;;19.90;99.90;;;;;;5031589;28;20888;-56
2022/01/03 11:43:27;;;;;;;14.60;14.10;;;19.90;99.90;;;;;;5031816;28;20476;-55
2022/01/03 11:45:54;;;;;;;16.37;15.20;;;19.90;99.90;;;;;;5031844;28;20453;-57
2022/01/03 11:48:21;;;;;;;15.00;14.50;;;19.90;99.90;;;;;;5032029;28;20449;-59
2022/01/03 11:50:51;;;;;;;15.50;14.80;;;19.90;99.90;;;;;;5031687;28;20552;-58
2022/01/03 11:53:20;;;;;;;16.30;15.60;;;19.90;99.90;;;;;;5031441;28;20444;-55
2022/01/03 11:55:51;;;;;;;15.37;14.77;;;19.90;99.90;;;;;;5031677;28;20858;-58
2022/01/03 11:58:43;;;;;;;15.70;15.10;;;19.90;99.90;;;;;;5031706;28;20480;-57
2022/01/03 12:03:58;;;;;;;15.33;14.73;;;19.70;99.90;;;;;;5031760;28;20436;-55
2022/01/03 12:06:31;;;;;;;14.10;13.60;;;19.70;99.90;;;;;;5031527;28;20889;-53
2022/01/03 12:09:02;;;;;;;14.87;14.37;;;19.60;99.90;;;;;;5031558;28;20482;-56
2022/01/03 12:11:30;;;;;;;14.80;14.20;;;19.50;99.90;;;;;;5031278;28;20489;-58
2022/01/03 12:13:59;;;;;;;14.70;14.10;;;19.50;99.90;;;;;;5031472;28;20443;-57
2022/01/03 12:16:41;;;;;;;15.33;14.63;;;19.50;99.90;;;;;;5031473;28;20445;-57
2022/01/03 12:19:10;;;;;;;14.20;13.67;;;19.50;99.90;;;;;;5031325;28;20491;-55
2022/01/03 12:21:59;;;;;;;14.53;13.87;;;19.50;99.90;;;;;;5031071;28;20505;-55
2022/01/03 12:24:50;;;;;;;14.67;14.27;;;19.40;99.80;;;;;;5031396;28;20769;-55
2022/01/03 12:27:37;;;;;;;14.10;13.70;;;19.40;99.70;;;;;;5031250;28;20437;-58
2022/01/03 12:30:23;;;;;;;14.90;14.40;;;19.40;99.90;;;;;;5031268;28;20460;-56
2022/01/03 12:33:19;;;;;;;15.37;14.57;;;19.30;99.90;;;;;;5031473;28;20528;-54
2022/01/03 12:35:48;;;;;;;14.77;14.20;;;19.30;99.70;;;;;;5031330;28;20449;-52
2022/01/03 12:38:19;;;;;;;14.97;14.30;;;19.30;99.90;;;;;;5031060;28;20796;-58
2022/01/03 12:40:56;;;;;;;14.70;14.20;;;19.30;99.80;;;;;;5031249;28;20475;-55
2022/01/03 12:43:45;;;;;;;15.20;14.50;;;19.20;99.80;;;;;;5031135;28;20544;-56
2022/01/03 12:46:17;;;;;;;14.27;13.77;;;19.20;99.60;;;;;;5031178;28;20508;-56
2022/01/03 12:48:43;;;;;;;14.67;14.17;;;19.20;99.50;;;;;;5031192;28;20453;-54
2022/01/03 12:51:15;;;;;;;15.23;14.60;;;19.20;99.40;;;;;;5031024;28;20469;-56
2022/01/03 12:54:01;;;;;;;14.07;13.67;;;19.20;99.30;;;;;;5034493;28;20943;-56